createdAt,value
2023-03-25T00:01:26.134Z,59.49
2023-03-25T00:03:53.628Z,59.65
2023-03-25T00:06:20.621Z,59.61
2023-03-25T00:08:52.083Z,59.58
2023-03-25T00:11:19.965Z,59.61
2023-03-25T00:13:48.208Z,59.72
2023-03-25T00:16:25.678Z,59.78
2023-03-25T00:18:52.661Z,59.63
2023-03-25T00:21:19.580Z,59.65
2023-03-25T00:23:48.027Z,59.76
2023-03-25T00:26:15.054Z,59.88
2023-03-25T00:28:42.058Z,59.95
2023-03-25T00:31:14.416Z,60.13
2023-03-25T00:33:44.267Z,60.04
2023-03-25T00:36:13.763Z,60.25
2023-03-25T00:38:43.218Z,60.17
2023-03-25T00:41:25.719Z,60.18
2023-03-25T00:43:56.674Z,60.28
2023-03-25T00:46:24.423Z,60.20
2023-03-25T00:48:57.293Z,60.17
2023-03-25T00:51:28.751Z,60.23
2023-03-25T00:54:00.272Z,60.23
2023-03-25T00:59:16.436Z,60.30
2023-03-25T01:01:46.515Z,60.18
2023-03-25T01:04:17.098Z,60.41
2023-03-25T01:06:45.578Z,60.27
2023-03-25T01:09:21.283Z,60.15
2023-03-25T01:11:50.617Z,60.04
2023-03-25T01:14:19.515Z,60.12
2023-03-25T01:16:51.068Z,60.17
2023-03-25T01:19:19.420Z,60.14
2023-03-25T01:21:46.995Z,60.08
2023-03-25T01:24:16.207Z,59.97
2023-03-25T01:26:44.669Z,59.92
2023-03-25T01:29:15.015Z,59.85
2023-03-25T01:31:42.426Z,59.91
2023-03-25T01:34:10.937Z,60.07
2023-03-25T01:36:40.137Z,60.17
2023-03-25T01:39:08.335Z,60.25
2023-03-25T01:41:49.142Z,60.39
2023-03-25T01:44:20.996Z,60.50
2023-03-25T01:46:53.674Z,60.66
2023-03-25T01:49:30.377Z,60.80
2023-03-25T01:52:06.418Z,61.15
2023-03-25T01:54:33.487Z,61.29
2023-03-25T01:57:01.484Z,61.62
2023-03-25T01:59:32.143Z,61.67
2023-03-25T02:02:02.623Z,61.84
2023-03-25T02:05:00.188Z,62.00
2023-03-25T02:07:32.976Z,62.05
2023-03-25T02:10:04.827Z,62.03
2023-03-25T02:12:33.120Z,62.02
2023-03-25T02:15:03.377Z,62.18
2023-03-25T02:17:43.929Z,62.35
2023-03-25T02:20:33.689Z,62.40
2023-03-25T02:23:23.997Z,62.59
2023-03-25T02:26:10.917Z,62.63
2023-03-25T02:28:47.395Z,62.66
2023-03-25T02:31:34.469Z,62.65
2023-03-25T02:34:04.802Z,62.76
2023-03-25T02:36:43.988Z,62.82
2023-03-25T02:39:14.211Z,62.84
2023-03-25T02:41:56.243Z,63.04
2023-03-25T02:44:54.833Z,63.07
2023-03-25T02:47:23.562Z,63.13
2023-03-25T02:49:56.597Z,63.31
2023-03-25T02:52:45.085Z,63.37
2023-03-25T02:55:15.140Z,63.46
2023-03-25T02:57:45.612Z,63.37
2023-03-25T03:00:21.059Z,63.45
2023-03-25T03:03:00.227Z,63.54
2023-03-25T03:05:31.302Z,63.47
2023-03-25T03:08:06.076Z,63.28
2023-03-25T03:11:13.019Z,63.31
2023-03-25T03:14:18.297Z,63.43
2023-03-25T03:17:09.738Z,63.36
2023-03-25T03:19:46.730Z,63.32
2023-03-25T03:22:40.580Z,63.41
2023-03-25T03:25:23.472Z,63.43
2023-03-25T03:28:28.815Z,63.50
2023-03-25T03:31:06.963Z,63.58
2023-03-25T03:33:41.226Z,63.89
2023-03-25T03:36:09.963Z,63.74
2023-03-25T03:38:46.933Z,64.05
2023-03-25T03:41:19.659Z,64.17
2023-03-25T03:43:54.610Z,64.27
2023-03-25T03:46:42.462Z,64.33
2023-03-25T03:49:17.399Z,64.36
2023-03-25T03:51:54.112Z,64.39
2023-03-25T03:54:31.029Z,64.35
2023-03-25T03:57:03.030Z,64.40
2023-03-25T03:59:43.137Z,64.38
2023-03-25T04:02:24.239Z,64.36
2023-03-25T04:04:54.894Z,64.51
2023-03-25T04:07:24.704Z,64.30
2023-03-25T04:10:04.093Z,64.54
2023-03-25T04:12:35.664Z,64.57
2023-03-25T04:15:07.375Z,64.72
2023-03-25T04:17:36.230Z,64.76
2023-03-25T04:20:09.269Z,64.79
2023-03-25T04:22:40.116Z,64.61
2023-03-25T04:25:08.110Z,64.61
2023-03-25T04:27:37.878Z,64.55
2023-03-25T04:30:07.270Z,64.49
2023-03-25T04:32:35.683Z,64.53
2023-03-25T04:35:04.888Z,64.58
2023-03-25T04:37:34.400Z,64.61
2023-03-25T04:40:01.943Z,64.55
2023-03-25T04:42:33.089Z,64.60
2023-03-25T04:45:01.383Z,64.56
2023-03-25T04:47:31.179Z,64.56
2023-03-25T04:49:58.884Z,64.33
2023-03-25T04:52:27.077Z,64.36
2023-03-25T04:54:56.019Z,64.37
2023-03-25T04:57:26.140Z,64.17
2023-03-25T04:59:56.972Z,63.76
2023-03-25T05:02:24.352Z,63.82
2023-03-25T05:04:54.322Z,63.82
2023-03-25T05:07:26.382Z,63.96
2023-03-25T05:09:53.618Z,63.87
2023-03-25T05:12:21.508Z,64.05
2023-03-25T05:14:48.863Z,64.03
2023-03-25T05:17:16.393Z,64.19
2023-03-25T05:19:44.589Z,64.04
2023-03-25T05:22:13.402Z,64.06
2023-03-25T05:24:45.350Z,64.03
2023-03-25T05:27:13.029Z,64.07
2023-03-25T05:29:40.719Z,63.96
2023-03-25T05:32:08.387Z,63.94
2023-03-25T05:34:36.159Z,64.08
2023-03-25T05:37:03.553Z,63.78
2023-03-25T05:39:32.610Z,63.80
2023-03-25T05:42:03.023Z,63.58
2023-03-25T05:44:32.132Z,63.64
2023-03-25T05:47:02.608Z,63.01
2023-03-25T05:49:30.811Z,62.72
2023-03-25T05:52:01.003Z,62.62
2023-03-25T05:54:30.837Z,62.45
2023-03-25T05:56:58.999Z,61.91
2023-03-25T05:59:27.559Z,61.52
2023-03-25T06:01:55.075Z,60.56
2023-03-25T06:10:39.713Z,56.03
2023-03-25T06:13:07.904Z,54.97
2023-03-25T06:15:39.613Z,54.34
2023-03-25T06:18:13.459Z,53.30
2023-03-25T06:20:41.526Z,52.08
2023-03-25T06:23:12.085Z,51.24
2023-03-25T06:25:41.216Z,50.75
2023-03-25T06:28:08.589Z,50.00
2023-03-25T06:30:38.226Z,49.19
2023-03-25T06:33:43.310Z,49.01
2023-03-25T06:36:12.983Z,48.82
2023-03-25T06:38:41.245Z,48.20
2023-03-25T06:41:13.200Z,48.04
2023-03-25T06:43:43.553Z,48.09
2023-03-25T06:46:44.287Z,47.60
2023-03-25T06:49:23.902Z,47.72
2023-03-25T06:51:53.846Z,47.64
2023-03-25T06:54:26.534Z,47.70
2023-03-25T06:56:54.050Z,47.54
2023-03-25T06:59:21.816Z,47.55
2023-03-25T07:01:49.153Z,47.01
2023-03-25T07:04:19.093Z,46.31
2023-03-25T07:06:47.214Z,45.72
2023-03-25T07:09:14.455Z,45.21
2023-03-25T07:11:41.884Z,45.35
2023-03-25T07:14:11.430Z,45.19
2023-03-25T07:16:38.880Z,44.75
2023-03-25T07:19:10.397Z,44.93
2023-03-25T07:21:39.500Z,44.94
2023-03-25T07:24:07.573Z,44.33
2023-03-25T07:26:34.895Z,43.76
2023-03-25T07:29:04.426Z,43.83
2023-03-25T07:31:32.721Z,43.93
2023-03-25T07:34:00.345Z,44.22
2023-03-25T07:36:27.610Z,44.41
2023-03-25T07:38:56.966Z,44.23
2023-03-25T07:41:26.234Z,44.16
2023-03-25T07:44:08.114Z,43.74
2023-03-25T07:46:37.601Z,43.10
2023-03-25T07:49:07.694Z,43.23
2023-03-25T07:51:36.703Z,43.56
2023-03-25T07:54:05.589Z,43.70
2023-03-25T07:56:34.200Z,43.94
2023-03-25T07:59:02.807Z,44.01
2023-03-25T08:01:30.190Z,43.81
2023-03-25T08:03:57.934Z,43.39
2023-03-25T08:06:28.616Z,43.50
2023-03-25T08:08:55.953Z,43.30
2023-03-25T08:11:23.361Z,43.30
2023-03-25T08:13:52.659Z,42.93
2023-03-25T08:16:20.230Z,42.67
2023-03-25T08:18:47.828Z,42.54
2023-03-25T08:21:17.441Z,42.21
2023-03-25T08:23:45.223Z,42.13
2023-03-25T08:26:12.632Z,42.38
2023-03-25T08:28:40.648Z,42.37
2023-03-25T08:31:10.811Z,42.31
2023-03-25T08:33:46.338Z,41.85
2023-03-25T08:36:16.138Z,40.92
2023-03-25T08:38:45.936Z,41.00
2023-03-25T08:41:14.008Z,41.14
2023-03-25T08:43:42.127Z,40.51
2023-03-25T08:46:10.590Z,40.57
2023-03-25T08:48:37.918Z,40.74
2023-03-25T08:51:08.633Z,40.29
2023-03-25T08:53:36.931Z,40.29
2023-03-25T08:56:05.995Z,40.12
2023-03-25T08:58:35.353Z,40.50
2023-03-25T09:01:03.245Z,41.22
2023-03-25T09:03:30.542Z,41.39
2023-03-25T09:06:00.358Z,41.72
2023-03-25T09:08:27.951Z,42.09
2023-03-25T09:10:56.358Z,42.01
2023-03-25T09:13:24.223Z,42.02
2023-03-25T09:15:53.171Z,41.94
2023-03-25T09:18:27.992Z,42.25
2023-03-25T09:21:00.834Z,42.79
2023-03-25T09:23:28.218Z,43.49
2023-03-25T09:25:57.091Z,43.82
2023-03-25T09:28:26.388Z,44.28
2023-03-25T09:30:55.324Z,44.80
2023-03-25T09:33:23.888Z,45.09
2023-03-25T09:35:51.974Z,45.33
2023-03-25T09:38:20.226Z,45.20
2023-03-25T09:40:48.772Z,45.17
2023-03-25T09:43:40.603Z,45.35
2023-03-25T09:46:07.862Z,45.45
2023-03-25T09:48:38.893Z,45.30
2023-03-25T09:51:15.946Z,45.58
2023-03-25T09:53:57.769Z,45.48
2023-03-25T09:56:27.739Z,45.98
2023-03-25T09:59:07.687Z,46.38
2023-03-25T10:01:40.048Z,46.52
2023-03-25T10:04:32.274Z,46.54
2023-03-25T10:07:14.851Z,46.33
2023-03-25T10:10:12.767Z,46.38
2023-03-25T10:13:03.136Z,46.21
2023-03-25T10:15:35.644Z,46.47
2023-03-25T10:18:19.612Z,46.42
2023-03-25T10:20:51.068Z,46.82
2023-03-25T10:24:03.524Z,46.96
2023-03-25T10:26:37.565Z,47.30
2023-03-25T10:29:16.263Z,47.63
2023-03-25T10:31:50.881Z,47.95
2023-03-25T10:34:19.236Z,48.27
2023-03-25T10:36:56.560Z,48.44
2023-03-25T10:39:25.958Z,48.38
2023-03-25T10:42:01.899Z,47.73
2023-03-25T10:44:29.582Z,47.64
2023-03-25T10:47:04.339Z,47.54
2023-03-25T10:49:33.394Z,47.20
2023-03-25T10:52:00.869Z,46.89
2023-03-25T10:54:31.892Z,47.00
2023-03-25T10:57:00.741Z,46.72
2023-03-25T10:59:36.058Z,46.42
2023-03-25T11:02:33.083Z,45.62
2023-03-25T11:05:03.210Z,44.65
2023-03-25T11:07:34.419Z,44.82
2023-03-25T11:10:13.917Z,44.70
2023-03-25T11:12:47.795Z,45.03
2023-03-25T11:15:17.254Z,45.30
2023-03-25T11:17:46.404Z,45.08
2023-03-25T11:20:19.584Z,44.95
2023-03-25T11:22:50.589Z,45.14
2023-03-25T11:25:28.336Z,45.39
2023-03-25T11:27:57.503Z,45.24
2023-03-25T11:30:26.949Z,45.12
2023-03-25T11:33:03.538Z,45.26
2023-03-25T11:35:42.503Z,45.44
2023-03-25T11:38:22.898Z,45.42
2023-03-25T11:40:55.456Z,45.42
2023-03-25T11:43:23.896Z,44.87
2023-03-25T11:45:51.928Z,44.62
2023-03-25T11:48:23.255Z,45.05
2023-03-25T11:50:55.933Z,45.14
2023-03-25T11:53:28.465Z,44.67
2023-03-25T11:55:58.292Z,44.50
2023-03-25T11:58:30.508Z,44.82
2023-03-25T12:01:08.001Z,45.24
2023-03-25T12:03:38.844Z,45.17
2023-03-25T12:06:15.152Z,44.77
2023-03-25T12:08:48.715Z,44.68
2023-03-25T12:11:26.169Z,44.43
2023-03-25T12:14:24.216Z,44.07
2023-03-25T12:17:26.183Z,44.35
2023-03-25T12:19:54.902Z,44.71
2023-03-25T12:22:45.744Z,44.60
2023-03-25T12:25:45.135Z,44.34
2023-03-25T12:28:46.682Z,44.18
2023-03-25T12:31:26.224Z,44.41
2023-03-25T12:34:12.262Z,44.64
2023-03-25T12:36:50.385Z,44.88
2023-03-25T12:39:43.229Z,44.99
2023-03-25T12:42:14.153Z,44.97
2023-03-25T12:45:15.948Z,45.09
2023-03-25T12:47:48.322Z,44.44
2023-03-25T12:50:57.350Z,44.46
2023-03-25T12:53:25.656Z,43.59
2023-03-25T12:56:19.442Z,43.85
2023-03-25T12:58:52.772Z,43.85
2023-03-25T13:01:49.750Z,44.12
2023-03-25T13:04:28.487Z,44.57
2023-03-25T13:07:16.798Z,44.19
2023-03-25T13:16:43.111Z,44.56
2023-03-25T13:19:22.591Z,45.37
2023-03-25T13:21:52.287Z,45.58
2023-03-25T13:24:22.773Z,45.84
2023-03-25T13:26:50.350Z,45.82
2023-03-25T13:29:54.515Z,45.56
2023-03-25T13:32:33.533Z,45.82
2023-03-25T13:35:03.530Z,46.04
2023-03-25T13:37:38.233Z,46.41
2023-03-25T13:40:19.029Z,46.81
2023-03-25T13:43:16.965Z,46.98
2023-03-25T13:46:06.536Z,47.10
2023-03-25T13:48:41.800Z,47.24
2023-03-25T13:51:08.486Z,47.20
2023-03-25T13:53:38.339Z,47.24
2023-03-25T13:56:06.151Z,47.48
2023-03-25T13:58:51.989Z,47.39
2023-03-25T14:01:37.894Z,47.43
2023-03-25T14:04:27.037Z,47.83
2023-03-25T14:06:59.850Z,47.27
2023-03-25T14:09:58.628Z,47.01
2023-03-25T14:12:32.989Z,47.38
2023-03-25T14:15:03.872Z,47.35
2023-03-25T14:17:32.934Z,47.31
2023-03-25T14:20:01.479Z,47.48
2023-03-25T14:22:32.808Z,47.75
2023-03-25T14:25:00.971Z,47.65
2023-03-25T14:27:31.040Z,47.90
2023-03-25T14:29:58.297Z,47.91
2023-03-25T14:32:31.605Z,47.94
2023-03-25T14:35:32.930Z,48.10
2023-03-25T14:38:06.554Z,48.11
2023-03-25T14:40:47.414Z,47.94
2023-03-25T14:43:53.522Z,47.98
2023-03-25T14:46:21.425Z,48.33
2023-03-25T14:49:04.509Z,48.62
2023-03-25T14:51:35.133Z,48.95
2023-03-25T14:54:02.252Z,49.44
2023-03-25T14:56:35.380Z,49.78
2023-03-25T14:59:10.443Z,50.16
2023-03-25T15:01:37.755Z,50.67
2023-03-25T15:04:34.005Z,50.83
2023-03-25T15:07:04.408Z,51.50
2023-03-25T15:09:30.735Z,51.84
2023-03-25T15:12:02.094Z,52.18
2023-03-25T15:14:35.421Z,52.16
2023-03-25T15:17:05.833Z,52.46
2023-03-25T15:20:09.435Z,52.74
2023-03-25T15:22:38.738Z,53.09
2023-03-25T15:25:18.449Z,53.28
2023-03-25T15:27:55.881Z,53.55
2023-03-25T15:30:51.092Z,53.80
2023-03-25T15:34:00.279Z,53.94
2023-03-25T15:36:53.450Z,53.98
2023-03-25T15:39:41.465Z,54.11
2023-03-25T15:42:14.603Z,54.49
2023-03-25T15:44:49.483Z,54.65
2023-03-25T15:47:50.760Z,55.19
2023-03-25T15:50:41.335Z,55.74
2023-03-25T15:53:42.936Z,56.46
2023-03-25T15:56:12.128Z,57.20
2023-03-25T15:59:08.062Z,57.63
2023-03-25T16:01:39.058Z,58.14
2023-03-25T16:04:30.783Z,58.38
2023-03-25T16:06:57.341Z,59.01
2023-03-25T16:09:27.361Z,59.52
2023-03-25T16:12:01.671Z,60.20
2023-03-25T16:14:32.716Z,60.57
2023-03-25T16:17:05.986Z,61.04
2023-03-25T16:19:38.831Z,61.59
2023-03-25T16:22:32.602Z,62.06
2023-03-25T16:25:01.956Z,62.19
2023-03-25T16:27:37.225Z,62.47
2023-03-25T16:30:37.012Z,62.72
2023-03-25T16:33:07.650Z,62.85
2023-03-25T16:35:43.511Z,63.05
2023-03-25T16:38:16.734Z,63.21
2023-03-25T16:40:46.418Z,63.31
2023-03-25T16:43:22.791Z,63.43
2023-03-25T16:45:51.130Z,63.61
2023-03-25T16:48:21.677Z,63.76
2023-03-25T16:50:49.041Z,63.90
2023-03-25T16:53:16.293Z,64.05
2023-03-25T16:55:50.361Z,64.44
2023-03-25T16:58:21.003Z,64.61
2023-03-25T17:00:49.961Z,64.90
2023-03-25T17:03:38.641Z,65.27
2023-03-25T17:06:28.016Z,65.75
2023-03-25T17:08:56.572Z,66.00
2023-03-25T17:11:26.101Z,66.20
2023-03-25T17:14:04.458Z,66.47
2023-03-25T17:16:31.891Z,66.62
2023-03-25T17:18:59.230Z,66.92
2023-03-25T17:21:32.086Z,66.90
2023-03-25T17:24:00.598Z,66.90
2023-03-25T17:26:37.307Z,67.02
2023-03-25T17:29:06.187Z,67.06
2023-03-25T17:31:35.745Z,67.14
2023-03-25T17:34:07.631Z,67.21
2023-03-25T17:36:35.994Z,67.27
2023-03-25T17:39:03.998Z,67.38
2023-03-25T17:41:38.170Z,67.50
2023-03-25T17:44:06.057Z,67.73
2023-03-25T17:46:34.099Z,67.80
2023-03-25T17:49:11.308Z,67.76
2023-03-25T17:51:39.182Z,67.81
2023-03-25T17:54:09.336Z,67.85
2023-03-25T17:56:38.048Z,68.03
2023-03-25T17:59:11.388Z,68.02
2023-03-25T18:01:41.585Z,68.16
2023-03-25T18:04:11.745Z,68.13
2023-03-25T18:06:45.757Z,68.03
2023-03-25T18:09:21.435Z,67.73
2023-03-25T18:11:53.097Z,67.71
2023-03-25T18:14:20.611Z,67.26
2023-03-25T18:16:48.281Z,67.09
2023-03-25T18:19:16.971Z,66.71
2023-03-25T18:21:43.474Z,66.38
2023-03-25T18:24:12.407Z,65.92
2023-03-25T18:26:42.013Z,65.57
2023-03-25T18:29:21.717Z,65.18
2023-03-25T18:31:48.882Z,64.99
2023-03-25T18:34:16.159Z,64.85
2023-03-25T18:36:43.458Z,64.82
2023-03-25T18:39:14.612Z,64.95
2023-03-25T18:41:41.619Z,65.07
2023-03-25T18:44:08.826Z,65.02
2023-03-25T18:46:37.144Z,65.13
2023-03-25T18:49:05.027Z,65.43
2023-03-25T18:51:32.150Z,65.40
2023-03-25T18:54:00.396Z,65.47
2023-03-25T18:56:27.612Z,65.52
2023-03-25T18:58:56.272Z,65.54
2023-03-25T19:01:25.051Z,65.67
2023-03-25T19:03:52.398Z,65.71
2023-03-25T19:06:21.002Z,65.73
2023-03-25T19:08:49.336Z,65.50
2023-03-25T19:11:21.775Z,65.63
2023-03-25T19:13:53.325Z,65.75
2023-03-25T19:16:23.524Z,65.89
2023-03-25T19:18:50.105Z,65.87
2023-03-25T19:21:19.266Z,65.95
2023-03-25T19:23:46.676Z,66.04
2023-03-25T19:26:14.162Z,66.21
2023-03-25T19:28:47.575Z,66.40
2023-03-25T19:31:17.913Z,66.47
2023-03-25T19:33:44.832Z,66.74
2023-03-25T19:36:14.431Z,66.93
2023-03-25T19:38:40.969Z,67.02
2023-03-25T19:41:14.867Z,67.10
2023-03-25T19:43:44.197Z,67.34
2023-03-25T19:46:11.288Z,67.41
2023-03-25T19:48:40.522Z,67.71
2023-03-25T19:51:07.851Z,67.74
2023-03-25T19:53:43.328Z,68.17
2023-03-25T19:56:13.349Z,68.80
2023-03-25T19:58:40.714Z,69.13
2023-03-25T20:01:08.249Z,69.62
2023-03-25T20:03:38.042Z,69.87
2023-03-25T20:06:06.060Z,70.20
2023-03-25T20:08:34.926Z,70.62
2023-03-25T20:11:08.763Z,70.98
2023-03-25T20:13:36.757Z,71.57
2023-03-25T20:16:04.477Z,72.05
2023-03-25T20:18:30.857Z,72.33
2023-03-25T20:21:06.555Z,73.04
2023-03-25T20:23:35.456Z,73.63
2023-03-25T20:26:02.961Z,75.01
2023-03-25T20:28:31.626Z,75.85
2023-03-25T20:30:58.504Z,76.50
2023-03-25T20:33:26.844Z,77.61
2023-03-25T20:35:53.743Z,78.72
2023-03-25T20:38:21.302Z,79.25
2023-03-25T20:40:48.444Z,79.79
2023-03-25T20:43:15.697Z,80.56
2023-03-25T20:45:43.177Z,80.93
2023-03-25T20:48:12.692Z,81.65
2023-03-25T20:50:40.661Z,81.74
2023-03-25T20:53:09.163Z,82.60
2023-03-25T20:55:38.828Z,83.32
2023-03-25T20:58:08.949Z,83.82
2023-03-25T21:00:36.784Z,84.46
2023-03-25T21:03:05.280Z,84.93
2023-03-25T21:05:34.191Z,85.48
2023-03-25T21:08:00.534Z,86.22
2023-03-25T21:10:27.196Z,86.75
2023-03-25T21:13:03.416Z,87.00
2023-03-25T21:15:30.899Z,87.28
2023-03-25T21:17:57.296Z,87.47
2023-03-25T21:20:28.317Z,87.68
2023-03-25T21:22:59.359Z,88.08
2023-03-25T21:33:25.783Z,89.27
2023-03-25T21:35:53.408Z,89.62
2023-03-25T21:38:28.603Z,89.98
2023-03-25T21:41:00.870Z,90.04
2023-03-25T21:43:29.862Z,90.18
2023-03-25T21:45:57.190Z,90.70
2023-03-25T21:48:32.557Z,91.06
2023-03-25T21:51:01.331Z,91.49
2023-03-25T21:53:32.519Z,91.45
2023-03-25T21:56:03.814Z,91.53
2023-03-25T21:58:39.267Z,91.83
2023-03-25T22:01:13.300Z,92.36
2023-03-25T22:03:44.932Z,92.96
2023-03-25T22:06:14.119Z,93.10
2023-03-25T22:08:41.766Z,93.50
2023-03-25T22:11:08.997Z,93.81
2023-03-25T22:13:36.333Z,94.13
2023-03-25T22:16:13.934Z,94.21
2023-03-25T22:18:41.953Z,94.50
2023-03-25T22:21:10.201Z,94.82
2023-03-25T22:23:38.465Z,95.29
2023-03-25T22:26:07.614Z,95.35
2023-03-25T22:28:35.694Z,95.44
2023-03-25T22:31:17.297Z,95.42
2023-03-25T22:33:44.502Z,95.48
2023-03-25T22:36:15.011Z,95.34
2023-03-25T22:38:45.894Z,95.37
2023-03-25T22:41:14.476Z,95.53
2023-03-25T22:43:43.437Z,95.90
2023-03-25T22:46:10.212Z,95.67
2023-03-25T22:48:39.422Z,95.68
2023-03-25T22:51:07.464Z,95.60
2023-03-25T22:53:35.780Z,95.43
2023-03-25T22:56:03.866Z,95.79
2023-03-25T22:58:30.484Z,95.61
2023-03-25T23:00:59.814Z,96.00
2023-03-25T23:03:27.704Z,96.05
2023-03-25T23:06:00.560Z,96.23
2023-03-25T23:08:34.537Z,96.28
2023-03-25T23:11:07.032Z,96.73
2023-03-25T23:13:34.533Z,96.73
2023-03-25T23:16:03.892Z,96.85
2023-03-25T23:18:30.677Z,96.77
2023-03-25T23:20:59.563Z,96.86
2023-03-25T23:23:26.453Z,97.32
2023-03-25T23:26:04.440Z,97.41
2023-03-25T23:28:35.668Z,97.40
2023-03-25T23:31:09.239Z,97.28
2023-03-25T23:33:36.433Z,97.84
2023-03-25T23:36:05.213Z,98.07
2023-03-25T23:38:33.065Z,98.54
2023-03-25T23:41:21.473Z,98.78
2023-03-25T23:43:49.160Z,98.70
2023-03-25T23:46:17.784Z,98.97
2023-03-25T23:48:46.861Z,99.19
2023-03-25T23:51:17.821Z,99.24
2023-03-25T23:53:46.601Z,99.57
2023-03-25T23:56:16.485Z,99.75
2023-03-25T23:58:43.701Z,99.91
